sensor_id;sensor_type;location;lat;lon;timestamp;temperature;humidity
41985;DHT22;28319;48.116;10.818;2024-03-06T00:04:50;5.50;81.00
41985;DHT22;28319;48.116;10.818;2024-03-06T00:09:52;5.50;80.80
41985;DHT22;28319;48.116;10.818;2024-03-06T00:14:54;5.50;80.90
41985;DHT22;28319;48.116;10.818;2024-03-06T00:19:58;5.50;81.10
41985;DHT22;28319;48.116;10.818;2024-03-06T00:25:00;5.50;81.00
41985;DHT22;28319;48.116;10.818;2024-03-06T00:30:02;5.50;81.10
41985;DHT22;28319;48.116;10.818;2024-03-06T00:35:06;5.50;80.90
41985;DHT22;28319;48.116;10.818;2024-03-06T00:40:09;5.50;81.20
41985;DHT22;28319;48.116;10.818;2024-03-06T00:45:12;5.50;81.40
41985;DHT22;28319;48.116;10.818;2024-03-06T00:50:17;5.60;80.70
41985;DHT22;28319;48.116;10.818;2024-03-06T00:55:21;5.50;81.70
41985;DHT22;28319;48.116;10.818;2024-03-06T01:00:23;5.90;80.50
41985;DHT22;28319;48.116;10.818;2024-03-06T01:05:27;5.60;80.80
41985;DHT22;28319;48.116;10.818;2024-03-06T01:10:28;5.50;81.50
41985;DHT22;28319;48.116;10.818;2024-03-06T01:15:31;5.50;81.10
41985;DHT22;28319;48.116;10.818;2024-03-06T01:20:35;5.50;81.30
41985;DHT22;28319;48.116;10.818;2024-03-06T01:25:37;5.40;81.70
41985;DHT22;28319;48.116;10.818;2024-03-06T01:30:38;5.30;81.80
41985;DHT22;28319;48.116;10.818;2024-03-06T01:35:42;5.30;83.00
41985;DHT22;28319;48.116;10.818;2024-03-06T01:40:44;5.20;82.70
41985;DHT22;28319;48.116;10.818;2024-03-06T01:45:47;5.70;83.20
41985;DHT22;28319;48.116;10.818;2024-03-06T01:50:51;5.20;82.90
41985;DHT22;28319;48.116;10.818;2024-03-06T01:55:54;5.20;82.60
41985;DHT22;28319;48.116;10.818;2024-03-06T02:00:57;5.30;83.20
41985;DHT22;28319;48.116;10.818;2024-03-06T02:06:02;5.10;83.50
41985;DHT22;28319;48.116;10.818;2024-03-06T02:11:05;5.10;82.80
41985;DHT22;28319;48.116;10.818;2024-03-06T02:16:07;5.10;82.70
41985;DHT22;28319;48.116;10.818;2024-03-06T02:21:11;4.90;83.60
41985;DHT22;28319;48.116;10.818;2024-03-06T02:26:13;4.80;83.60
41985;DHT22;28319;48.116;10.818;2024-03-06T02:31:15;4.80;83.60
41985;DHT22;28319;48.116;10.818;2024-03-06T02:36:19;4.80;83.70
41985;DHT22;28319;48.116;10.818;2024-03-06T02:41:21;4.80;83.80
41985;DHT22;28319;48.116;10.818;2024-03-06T02:46:23;4.70;83.70
41985;DHT22;28319;48.116;10.818;2024-03-06T02:51:26;4.60;83.50
41985;DHT22;28319;48.116;10.818;2024-03-06T02:56:28;4.60;82.10
41985;DHT22;28319;48.116;10.818;2024-03-06T03:01:30;4.50;84.80
41985;DHT22;28319;48.116;10.818;2024-03-06T03:06:34;4.50;83.40
41985;DHT22;28319;48.116;10.818;2024-03-06T03:11:35;4.50;82.50
41985;DHT22;28319;48.116;10.818;2024-03-06T03:16:37;4.60;83.30
41985;DHT22;28319;48.116;10.818;2024-03-06T03:21:44;5.20;83.00
41985;DHT22;28319;48.116;10.818;2024-03-06T03:26:46;4.70;81.90
41985;DHT22;28319;48.116;10.818;2024-03-06T03:31:48;4.70;82.20
41985;DHT22;28319;48.116;10.818;2024-03-06T03:36:51;4.60;83.30
41985;DHT22;28319;48.116;10.818;2024-03-06T03:41:53;4.60;83.20
41985;DHT22;28319;48.116;10.818;2024-03-06T03:46:55;4.70;82.50
41985;DHT22;28319;48.116;10.818;2024-03-06T03:51:59;4.70;82.90
41985;DHT22;28319;48.116;10.818;2024-03-06T03:57:01;4.60;82.70
41985;DHT22;28319;48.116;10.818;2024-03-06T04:02:03;4.60;83.00
41985;DHT22;28319;48.116;10.818;2024-03-06T04:07:06;4.50;82.90
41985;DHT22;28319;48.116;10.818;2024-03-06T04:12:08;4.60;82.20
41985;DHT22;28319;48.116;10.818;2024-03-06T04:17:10;4.60;82.20
41985;DHT22;28319;48.116;10.818;2024-03-06T04:22:14;4.70;82.10
41985;DHT22;28319;48.116;10.818;2024-03-06T04:27:16;4.60;82.20
41985;DHT22;28319;48.116;10.818;2024-03-06T04:32:18;4.60;82.30
41985;DHT22;28319;48.116;10.818;2024-03-06T04:37:22;4.60;82.90
41985;DHT22;28319;48.116;10.818;2024-03-06T04:42:23;4.60;83.30
41985;DHT22;28319;48.116;10.818;2024-03-06T04:47:26;4.50;83.20
41985;DHT22;28319;48.116;10.818;2024-03-06T04:52:30;4.50;83.70
41985;DHT22;28319;48.116;10.818;2024-03-06T04:57:34;4.50;83.80
41985;DHT22;28319;48.116;10.818;2024-03-06T05:02:36;4.50;84.00
41985;DHT22;28319;48.116;10.818;2024-03-06T05:07:39;4.60;83.70
41985;DHT22;28319;48.116;10.818;2024-03-06T05:12:41;4.60;83.40
41985;DHT22;28319;48.116;10.818;2024-03-06T05:17:43;4.70;82.60
41985;DHT22;28319;48.116;10.818;2024-03-06T05:22:48;4.70;83.00
41985;DHT22;28319;48.116;10.818;2024-03-06T05:27:50;4.70;82.70
41985;DHT22;28319;48.116;10.818;2024-03-06T05:32:52;4.70;83.10
41985;DHT22;28319;48.116;10.818;2024-03-06T05:37:56;4.80;82.80
41985;DHT22;28319;48.116;10.818;2024-03-06T05:42:57;4.90;82.20
41985;DHT22;28319;48.116;10.818;2024-03-06T05:47:59;4.70;82.40
41985;DHT22;28319;48.116;10.818;2024-03-06T05:53:03;4.80;82.40
41985;DHT22;28319;48.116;10.818;2024-03-06T05:58:05;4.60;82.90
41985;DHT22;28319;48.116;10.818;2024-03-06T06:03:07;4.60;83.00
41985;DHT22;28319;48.116;10.818;2024-03-06T06:08:13;4.50;84.20
41985;DHT22;28319;48.116;10.818;2024-03-06T06:13:15;4.50;84.20
41985;DHT22;28319;48.116;10.818;2024-03-06T06:18:17;4.50;84.40
41985;DHT22;28319;48.116;10.818;2024-03-06T06:23:20;4.50;85.10
41985;DHT22;28319;48.116;10.818;2024-03-06T06:28:22;4.60;85.60
41985;DHT22;28319;48.116;10.818;2024-03-06T06:33:24;4.70;85.70
41985;DHT22;28319;48.116;10.818;2024-03-06T06:38:27;4.80;85.20
41985;DHT22;28319;48.116;10.818;2024-03-06T06:43:29;4.90;85.20
41985;DHT22;28319;48.116;10.818;2024-03-06T06:48:31;4.80;85.70
41985;DHT22;28319;48.116;10.818;2024-03-06T06:53:37;4.90;85.60
41985;DHT22;28319;48.116;10.818;2024-03-06T06:58:40;5.00;84.60
41985;DHT22;28319;48.116;10.818;2024-03-06T07:03:44;4.90;85.60
41985;DHT22;28319;48.116;10.818;2024-03-06T07:08:47;4.90;85.00
41985;DHT22;28319;48.116;10.818;2024-03-06T07:13:49;4.90;85.30
41985;DHT22;28319;48.116;10.818;2024-03-06T07:18:51;4.90;84.70
41985;DHT22;28319;48.116;10.818;2024-03-06T07:23:55;4.90;86.00
41985;DHT22;28319;48.116;10.818;2024-03-06T07:28:57;4.90;85.90
41985;DHT22;28319;48.116;10.818;2024-03-06T07:33:59;5.00;85.40
41985;DHT22;28319;48.116;10.818;2024-03-06T07:39:02;5.00;84.70
41985;DHT22;28319;48.116;10.818;2024-03-06T07:44:05;5.10;85.50
41985;DHT22;28319;48.116;10.818;2024-03-06T07:49:07;5.00;85.80
41985;DHT22;28319;48.116;10.818;2024-03-06T07:54:10;5.00;86.10
41985;DHT22;28319;48.116;10.818;2024-03-06T07:59:12;5.10;86.20
41985;DHT22;28319;48.116;10.818;2024-03-06T08:04:16;5.00;87.30
41985;DHT22;28319;48.116;10.818;2024-03-06T08:09:19;5.10;87.20
41985;DHT22;28319;48.116;10.818;2024-03-06T08:14:21;5.10;87.80
41985;DHT22;28319;48.116;10.818;2024-03-06T08:19:24;5.30;87.50
41985;DHT22;28319;48.116;10.818;2024-03-06T08:24:28;5.20;87.90
41985;DHT22;28319;48.116;10.818;2024-03-06T08:29:30;5.20;88.90
41985;DHT22;28319;48.116;10.818;2024-03-06T08:34:32;5.20;88.80
41985;DHT22;28319;48.116;10.818;2024-03-06T08:39:35;5.40;87.70
41985;DHT22;28319;48.116;10.818;2024-03-06T08:44:37;5.50;88.20
41985;DHT22;28319;48.116;10.818;2024-03-06T08:49:39;5.60;87.90
41985;DHT22;28319;48.116;10.818;2024-03-06T08:54:43;5.60;89.80
41985;DHT22;28319;48.116;10.818;2024-03-06T08:59:45;5.60;91.40
41985;DHT22;28319;48.116;10.818;2024-03-06T09:04:47;5.60;91.40
41985;DHT22;28319;48.116;10.818;2024-03-06T09:09:50;5.70;91.40
41985;DHT22;28319;48.116;10.818;2024-03-06T09:14:53;5.80;90.10
41985;DHT22;28319;48.116;10.818;2024-03-06T09:19:55;5.90;89.60
41985;DHT22;28319;48.116;10.818;2024-03-06T09:24:59;5.80;90.10
41985;DHT22;28319;48.116;10.818;2024-03-06T09:30:01;5.70;91.60
41985;DHT22;28319;48.116;10.818;2024-03-06T09:35:03;5.80;87.70
41985;DHT22;28319;48.116;10.818;2024-03-06T09:40:09;5.90;85.00
41985;DHT22;28319;48.116;10.818;2024-03-06T09:45:11;6.00;84.30
41985;DHT22;28319;48.116;10.818;2024-03-06T09:50:16;6.10;88.10
41985;DHT22;28319;48.116;10.818;2024-03-06T09:55:20;6.00;90.00
41985;DHT22;28319;48.116;10.818;2024-03-06T10:00:22;5.90;90.80
41985;DHT22;28319;48.116;10.818;2024-03-06T10:05:25;6.00;89.10
41985;DHT22;28319;48.116;10.818;2024-03-06T10:10:32;5.90;87.60
41985;DHT22;28319;48.116;10.818;2024-03-06T10:15:34;6.00;85.80
41985;DHT22;28319;48.116;10.818;2024-03-06T10:20:37;6.10;85.60
41985;DHT22;28319;48.116;10.818;2024-03-06T10:25:43;6.10;84.00
41985;DHT22;28319;48.116;10.818;2024-03-06T10:30:45;5.90;85.20
41985;DHT22;28319;48.116;10.818;2024-03-06T10:35:47;5.80;87.40
41985;DHT22;28319;48.116;10.818;2024-03-06T10:40:51;6.00;84.40
41985;DHT22;28319;48.116;10.818;2024-03-06T10:46:00;5.80;84.70
41985;DHT22;28319;48.116;10.818;2024-03-06T10:51:05;5.90;84.40
41985;DHT22;28319;48.116;10.818;2024-03-06T10:56:10;5.90;84.30
41985;DHT22;28319;48.116;10.818;2024-03-06T11:01:13;5.60;85.00
41985;DHT22;28319;48.116;10.818;2024-03-06T11:06:15;5.60;84.00
41985;DHT22;28319;48.116;10.818;2024-03-06T11:11:23;5.50;85.00
41985;DHT22;28319;48.116;10.818;2024-03-06T11:16:29;5.40;83.70
41985;DHT22;28319;48.116;10.818;2024-03-06T11:21:34;5.40;83.30
41985;DHT22;28319;48.116;10.818;2024-03-06T11:26:37;5.40;83.00
41985;DHT22;28319;48.116;10.818;2024-03-06T11:32:00;5.50;83.80
41985;DHT22;28319;48.116;10.818;2024-03-06T11:37:05;5.40;83.30
41985;DHT22;28319;48.116;10.818;2024-03-06T11:42:11;5.30;83.40
41985;DHT22;28319;48.116;10.818;2024-03-06T11:47:15;5.20;83.50
41985;DHT22;28319;48.116;10.818;2024-03-06T11:52:17;5.20;82.90
41985;DHT22;28319;48.116;10.818;2024-03-06T11:57:20;5.30;82.90
41985;DHT22;28319;48.116;10.818;2024-03-06T12:02:23;5.30;82.70
41985;DHT22;28319;48.116;10.818;2024-03-06T12:07:25;5.20;82.90
41985;DHT22;28319;48.116;10.818;2024-03-06T12:12:29;5.20;82.50
41985;DHT22;28319;48.116;10.818;2024-03-06T12:17:31;5.20;83.10
41985;DHT22;28319;48.116;10.818;2024-03-06T12:22:33;5.00;83.10
41985;DHT22;28319;48.116;10.818;2024-03-06T12:27:37;5.10;83.70
41985;DHT22;28319;48.116;10.818;2024-03-06T12:32:39;5.00;83.40
41985;DHT22;28319;48.116;10.818;2024-03-06T12:37:42;5.10;83.80
41985;DHT22;28319;48.116;10.818;2024-03-06T12:42:45;5.20;83.30
41985;DHT22;28319;48.116;10.818;2024-03-06T12:47:47;5.30;83.60
41985;DHT22;28319;48.116;10.818;2024-03-06T12:52:50;5.30;84.50
41985;DHT22;28319;48.116;10.818;2024-03-06T12:57:54;5.30;84.10
41985;DHT22;28319;48.116;10.818;2024-03-06T13:02:56;5.40;84.00
41985;DHT22;28319;48.116;10.818;2024-03-06T13:07:58;5.30;83.30
41985;DHT22;28319;48.116;10.818;2024-03-06T13:13:03;5.30;83.70
41985;DHT22;28319;48.116;10.818;2024-03-06T13:18:05;5.30;84.10
41985;DHT22;28319;48.116;10.818;2024-03-06T13:23:07;5.30;83.20
41985;DHT22;28319;48.116;10.818;2024-03-06T13:28:11;5.40;83.70
41985;DHT22;28319;48.116;10.818;2024-03-06T13:33:13;5.40;82.50
41985;DHT22;28319;48.116;10.818;2024-03-06T13:38:15;5.60;82.40
41985;DHT22;28319;48.116;10.818;2024-03-06T13:43:18;5.30;81.30
41985;DHT22;28319;48.116;10.818;2024-03-06T13:48:24;5.30;82.00
41985;DHT22;28319;48.116;10.818;2024-03-06T13:53:26;5.90;82.20
41985;DHT22;28319;48.116;10.818;2024-03-06T13:58:29;5.20;82.20
41985;DHT22;28319;48.116;10.818;2024-03-06T14:03:31;5.30;82.30
41985;DHT22;28319;48.116;10.818;2024-03-06T14:08:34;5.30;81.50
41985;DHT22;28319;48.116;10.818;2024-03-06T14:13:40;5.30;81.80
41985;DHT22;28319;48.116;10.818;2024-03-06T14:18:41;5.30;82.30
41985;DHT22;28319;48.116;10.818;2024-03-06T14:23:43;5.40;82.50
41985;DHT22;28319;48.116;10.818;2024-03-06T14:28:47;5.30;82.00
41985;DHT22;28319;48.116;10.818;2024-03-06T14:33:48;5.30;82.60
41985;DHT22;28319;48.116;10.818;2024-03-06T14:38:51;5.30;82.40
41985;DHT22;28319;48.116;10.818;2024-03-06T14:43:55;5.30;82.60
41985;DHT22;28319;48.116;10.818;2024-03-06T14:48:57;5.20;82.60
41985;DHT22;28319;48.116;10.818;2024-03-06T14:53:59;5.20;82.50
41985;DHT22;28319;48.116;10.818;2024-03-06T14:59:02;5.30;82.00
41985;DHT22;28319;48.116;10.818;2024-03-06T15:04:04;5.20;81.80
41985;DHT22;28319;48.116;10.818;2024-03-06T15:09:06;5.20;82.10
41985;DHT22;28319;48.116;10.818;2024-03-06T15:14:13;5.10;81.60
41985;DHT22;28319;48.116;10.818;2024-03-06T15:19:15;5.10;81.40
41985;DHT22;28319;48.116;10.818;2024-03-06T15:24:17;5.20;82.10
41985;DHT22;28319;48.116;10.818;2024-03-06T15:29:20;5.20;82.20
41985;DHT22;28319;48.116;10.818;2024-03-06T15:34:22;5.20;82.00
41985;DHT22;28319;48.116;10.818;2024-03-06T15:39:24;5.10;83.00
41985;DHT22;28319;48.116;10.818;2024-03-06T15:44:28;5.10;82.80
41985;DHT22;28319;48.116;10.818;2024-03-06T15:49:30;5.20;81.80
41985;DHT22;28319;48.116;10.818;2024-03-06T15:54:32;5.10;82.20
41985;DHT22;28319;48.116;10.818;2024-03-06T15:59:37;5.10;81.80
41985;DHT22;28319;48.116;10.818;2024-03-06T16:04:40;5.10;82.20
41985;DHT22;28319;48.116;10.818;2024-03-06T16:09:42;5.10;81.70
41985;DHT22;28319;48.116;10.818;2024-03-06T16:14:46;5.10;82.20
41985;DHT22;28319;48.116;10.818;2024-03-06T16:19:48;5.00;83.00
41985;DHT22;28319;48.116;10.818;2024-03-06T16:24:49;4.90;83.60
41985;DHT22;28319;48.116;10.818;2024-03-06T16:29:55;4.90;83.60
41985;DHT22;28319;48.116;10.818;2024-03-06T16:34:57;4.80;83.50
41985;DHT22;28319;48.116;10.818;2024-03-06T16:39:58;4.70;83.40
41985;DHT22;28319;48.116;10.818;2024-03-06T16:45:02;4.70;83.20
41985;DHT22;28319;48.116;10.818;2024-03-06T16:50:05;4.60;83.00
41985;DHT22;28319;48.116;10.818;2024-03-06T16:55:08;4.50;83.30
41985;DHT22;28319;48.116;10.818;2024-03-06T17:00:13;4.60;83.50
41985;DHT22;28319;48.116;10.818;2024-03-06T17:05:15;4.50;82.90
41985;DHT22;28319;48.116;10.818;2024-03-06T17:10:17;4.50;83.20
41985;DHT22;28319;48.116;10.818;2024-03-06T17:15:20;4.40;83.50
41985;DHT22;28319;48.116;10.818;2024-03-06T17:20:22;4.40;84.10
41985;DHT22;28319;48.116;10.818;2024-03-06T17:25:24;4.40;83.50
41985;DHT22;28319;48.116;10.818;2024-03-06T17:30:27;4.30;83.30
41985;DHT22;28319;48.116;10.818;2024-03-06T17:35:30;4.30;84.40
41985;DHT22;28319;48.116;10.818;2024-03-06T17:40:32;4.30;84.00
41985;DHT22;28319;48.116;10.818;2024-03-06T17:45:35;4.30;84.50
41985;DHT22;28319;48.116;10.818;2024-03-06T17:50:37;4.30;84.40
41985;DHT22;28319;48.116;10.818;2024-03-06T17:55:39;4.10;84.20
41985;DHT22;28319;48.116;10.818;2024-03-06T18:00:43;4.10;83.20
41985;DHT22;28319;48.116;10.818;2024-03-06T18:05:45;4.00;83.60
41985;DHT22;28319;48.116;10.818;2024-03-06T18:10:46;4.00;83.00
41985;DHT22;28319;48.116;10.818;2024-03-06T18:15:50;4.00;83.50
41985;DHT22;28319;48.116;10.818;2024-03-06T18:20:52;4.00;83.30
41985;DHT22;28319;48.116;10.818;2024-03-06T18:25:55;4.00;82.50
41985;DHT22;28319;48.116;10.818;2024-03-06T18:30:59;4.00;82.50
41985;DHT22;28319;48.116;10.818;2024-03-06T18:36:00;3.90;82.70
41985;DHT22;28319;48.116;10.818;2024-03-06T18:41:03;3.90;81.90
41985;DHT22;28319;48.116;10.818;2024-03-06T18:46:07;3.90;83.60
41985;DHT22;28319;48.116;10.818;2024-03-06T18:51:09;3.80;82.90
41985;DHT22;28319;48.116;10.818;2024-03-06T18:56:10;3.80;82.40
41985;DHT22;28319;48.116;10.818;2024-03-06T19:01:14;3.90;82.40
41985;DHT22;28319;48.116;10.818;2024-03-06T19:06:16;3.90;82.40
41985;DHT22;28319;48.116;10.818;2024-03-06T19:11:18;3.90;82.30
41985;DHT22;28319;48.116;10.818;2024-03-06T19:16:21;4.00;82.40
41985;DHT22;28319;48.116;10.818;2024-03-06T19:21:24;3.90;83.00
41985;DHT22;28319;48.116;10.818;2024-03-06T19:26:26;4.00;83.40
41985;DHT22;28319;48.116;10.818;2024-03-06T19:31:30;3.90;82.00
41985;DHT22;28319;48.116;10.818;2024-03-06T19:36:32;4.00;82.60
41985;DHT22;28319;48.116;10.818;2024-03-06T19:41:34;4.00;82.80
41985;DHT22;28319;48.116;10.818;2024-03-06T19:46:38;3.90;82.90
41985;DHT22;28319;48.116;10.818;2024-03-06T19:51:41;3.90;83.60
41985;DHT22;28319;48.116;10.818;2024-03-06T19:56:43;3.90;83.00
41985;DHT22;28319;48.116;10.818;2024-03-06T20:01:47;3.90;83.40
41985;DHT22;28319;48.116;10.818;2024-03-06T20:06:49;3.90;83.60
41985;DHT22;28319;48.116;10.818;2024-03-06T20:11:51;3.90;83.80
41985;DHT22;28319;48.116;10.818;2024-03-06T20:16:56;3.80;83.00
41985;DHT22;28319;48.116;10.818;2024-03-06T20:21:58;3.80;83.70
41985;DHT22;28319;48.116;10.818;2024-03-06T20:27:00;3.70;84.80
41985;DHT22;28319;48.116;10.818;2024-03-06T20:32:06;3.70;84.20
41985;DHT22;28319;48.116;10.818;2024-03-06T20:37:08;3.80;83.80
41985;DHT22;28319;48.116;10.818;2024-03-06T20:42:10;3.70;82.80
41985;DHT22;28319;48.116;10.818;2024-03-06T20:47:13;3.60;83.40
41985;DHT22;28319;48.116;10.818;2024-03-06T20:52:15;3.60;83.00
41985;DHT22;28319;48.116;10.818;2024-03-06T20:57:17;3.60;83.50
41985;DHT22;28319;48.116;10.818;2024-03-06T21:02:21;3.60;83.80
41985;DHT22;28319;48.116;10.818;2024-03-06T21:07:24;3.70;83.60
41985;DHT22;28319;48.116;10.818;2024-03-06T21:12:26;3.60;83.60
41985;DHT22;28319;48.116;10.818;2024-03-06T21:17:30;3.60;84.10
41985;DHT22;28319;48.116;10.818;2024-03-06T21:22:33;3.60;83.80
41985;DHT22;28319;48.116;10.818;2024-03-06T21:27:35;3.50;84.30
41985;DHT22;28319;48.116;10.818;2024-03-06T21:32:39;3.50;84.90
41985;DHT22;28319;48.116;10.818;2024-03-06T21:37:41;3.50;84.50
41985;DHT22;28319;48.116;10.818;2024-03-06T21:42:43;3.50;84.90
41985;DHT22;28319;48.116;10.818;2024-03-06T21:47:47;3.60;85.30
41985;DHT22;28319;48.116;10.818;2024-03-06T21:52:49;3.60;85.10
41985;DHT22;28319;48.116;10.818;2024-03-06T21:57:51;3.50;84.90
41985;DHT22;28319;48.116;10.818;2024-03-06T22:02:54;3.50;86.20
41985;DHT22;28319;48.116;10.818;2024-03-06T22:07:56;3.50;85.60
41985;DHT22;28319;48.116;10.818;2024-03-06T22:12:58;3.50;84.70
41985;DHT22;28319;48.116;10.818;2024-03-06T22:18:02;3.60;85.00
41985;DHT22;28319;48.116;10.818;2024-03-06T22:23:04;3.40;85.50
41985;DHT22;28319;48.116;10.818;2024-03-06T22:28:09;3.40;85.70
41985;DHT22;28319;48.116;10.818;2024-03-06T22:33:13;3.40;85.50
41985;DHT22;28319;48.116;10.818;2024-03-06T22:38:15;3.40;85.50
41985;DHT22;28319;48.116;10.818;2024-03-06T22:43:18;3.50;85.40
41985;DHT22;28319;48.116;10.818;2024-03-06T22:48:22;3.40;85.10
41985;DHT22;28319;48.116;10.818;2024-03-06T22:53:24;3.30;85.80
41985;DHT22;28319;48.116;10.818;2024-03-06T22:58:25;3.30;85.40
41985;DHT22;28319;48.116;10.818;2024-03-06T23:03:29;3.40;85.60
41985;DHT22;28319;48.116;10.818;2024-03-06T23:08:31;3.50;85.10
41985;DHT22;28319;48.116;10.818;2024-03-06T23:13:33;3.50;85.20
41985;DHT22;28319;48.116;10.818;2024-03-06T23:18:36;3.40;85.60
41985;DHT22;28319;48.116;10.818;2024-03-06T23:23:40;3.40;85.20
41985;DHT22;28319;48.116;10.818;2024-03-06T23:28:43;3.50;85.00
41985;DHT22;28319;48.116;10.818;2024-03-06T23:33:47;3.50;85.40
41985;DHT22;28319;48.116;10.818;2024-03-06T23:38:49;3.50;85.00
41985;DHT22;28319;48.116;10.818;2024-03-06T23:43:50;3.60;84.90
41985;DHT22;28319;48.116;10.818;2024-03-06T23:48:55;3.60;84.80
41985;DHT22;28319;48.116;10.818;2024-03-06T23:53:57;3.60;84.70
41985;DHT22;28319;48.116;10.818;2024-03-06T23:59:00;3.60;84.60
